createdAt,value
2023-02-08T09:21:21.578Z,-1.70
2023-02-08T09:23:49.766Z,-1.80
2023-02-08T09:26:19.707Z,-1.80
2023-02-08T09:28:49.445Z,-1.70
2023-02-08T09:34:01.639Z,-1.50
2023-02-08T09:36:32.990Z,-1.50
2023-02-08T09:39:04.295Z,-1.30
2023-02-08T09:41:53.939Z,-1.30
2023-02-08T09:44:28.839Z,-1.10
2023-02-08T09:49:32.250Z,-1.00
2023-02-08T09:52:03.055Z,-1.00
2023-02-08T09:54:35.538Z,-0.90
2023-02-08T09:57:07.118Z,-0.90
2023-02-08T09:59:37.493Z,-0.60
2023-02-08T10:02:20.475Z,-0.50
2023-02-08T10:04:58.048Z,0.00
2023-02-08T10:07:26.884Z,-0.30
2023-02-08T10:09:57.537Z,-0.30
2023-02-08T10:12:36.176Z,-0.20
2023-02-08T10:15:15.326Z,-0.10
2023-02-08T10:17:54.052Z,0.00
2023-02-08T10:20:33.580Z,0.00
2023-02-08T10:23:13.763Z,0.10
2023-02-08T10:26:03.176Z,0.10
2023-02-08T10:28:52.489Z,0.00
2023-02-08T10:31:30.625Z,0.20
2023-02-08T10:34:12.926Z,0.40
2023-02-08T10:36:42.115Z,0.30
2023-02-08T10:39:17.751Z,0.30
2023-02-08T10:41:47.093Z,0.40
2023-02-08T10:44:25.340Z,0.50
2023-02-08T10:47:03.465Z,0.50
2023-02-08T10:49:39.985Z,0.50
2023-02-08T10:52:08.363Z,0.60
2023-02-08T10:54:36.865Z,0.70
2023-02-08T10:57:12.752Z,0.80
2023-02-08T10:59:49.625Z,0.80
2023-02-08T11:02:23.428Z,1.00
2023-02-08T11:05:03.772Z,1.00
2023-02-08T11:07:36.002Z,1.00
2023-02-08T11:10:23.823Z,1.10
2023-02-08T11:12:57.348Z,1.30
2023-02-08T11:15:27.939Z,1.30
2023-02-08T11:18:01.597Z,1.30
2023-02-08T11:20:36.585Z,1.40
2023-02-08T11:23:05.874Z,1.40
2023-02-08T11:25:37.664Z,1.50
2023-02-08T11:28:06.577Z,1.50
2023-02-08T11:30:34.641Z,1.50
2023-02-08T11:33:20.131Z,1.80
2023-02-08T11:36:05.255Z,1.80
2023-02-08T11:38:35.920Z,1.90
2023-02-08T11:41:05.755Z,1.90
2023-02-08T11:43:35.990Z,1.90
2023-02-08T11:46:06.130Z,2.00
2023-02-08T11:48:43.898Z,2.10
2023-02-08T11:51:15.633Z,2.10
2023-02-08T11:53:48.939Z,2.30
2023-02-08T11:56:19.839Z,2.60
2023-02-08T11:59:18.668Z,2.30
2023-02-08T12:01:47.160Z,2.30
2023-02-08T12:04:18.323Z,2.30
2023-02-08T12:07:18.606Z,1.80
2023-02-08T12:10:12.970Z,2.40
2023-02-08T12:13:05.076Z,2.40
2023-02-08T12:15:57.110Z,2.40
2023-02-08T12:18:45.232Z,2.40
2023-02-08T12:21:19.254Z,2.90
2023-02-08T12:23:53.576Z,2.50
2023-02-08T12:26:45.522Z,2.50
2023-02-08T12:29:47.444Z,2.50
2023-02-08T12:32:51.571Z,2.50
2023-02-08T12:35:45.719Z,2.60
2023-02-08T12:38:54.315Z,2.60
2023-02-08T12:41:29.706Z,2.60
2023-02-08T12:44:08.304Z,2.60
2023-02-08T12:46:55.932Z,2.70
2023-02-08T12:49:39.727Z,2.80
2023-02-08T12:52:26.772Z,2.70
2023-02-08T12:55:01.781Z,2.80
2023-02-08T12:57:32.133Z,2.80
2023-02-08T13:00:04.357Z,2.90
2023-02-08T13:02:44.296Z,3.00
2023-02-08T13:05:18.767Z,3.00
2023-02-08T13:07:50.354Z,3.00
2023-02-08T13:10:27.016Z,3.00
2023-02-08T13:12:58.126Z,3.00
2023-02-08T13:15:32.060Z,3.00
2023-02-08T13:18:02.709Z,3.00
2023-02-08T13:20:39.061Z,3.00
2023-02-08T13:23:14.343Z,3.00
2023-02-08T13:25:45.203Z,3.10
2023-02-08T13:28:20.297Z,3.10
2023-02-08T13:30:59.804Z,3.10
2023-02-08T13:33:37.143Z,3.00
2023-02-08T13:36:06.049Z,3.10
2023-02-08T13:38:36.236Z,3.20
2023-02-08T13:41:16.294Z,4.30
2023-02-08T13:48:49.679Z,3.30
2023-02-08T13:51:58.578Z,3.30
2023-02-08T13:54:26.910Z,3.40
2023-02-08T13:59:41.824Z,3.40
2023-02-08T14:02:28.958Z,3.40
2023-02-08T14:05:40.072Z,3.50
2023-02-08T14:08:16.376Z,3.60
2023-02-08T14:10:51.924Z,3.60
2023-02-08T14:13:30.126Z,3.60
2023-02-08T14:16:29.468Z,3.60
2023-02-08T14:19:00.297Z,3.50
2023-02-08T14:21:33.279Z,3.50
2023-02-08T14:24:04.028Z,3.60
2023-02-08T14:29:04.322Z,3.60
2023-02-08T14:31:41.613Z,3.70
2023-02-08T14:34:24.186Z,3.90
2023-02-08T14:37:01.450Z,4.00
2023-02-08T14:39:33.317Z,3.90
2023-02-08T14:42:05.480Z,4.10
2023-02-08T14:45:03.182Z,4.40
2023-02-08T14:47:55.155Z,4.20
2023-02-08T14:50:27.194Z,4.30
2023-02-08T14:53:02.314Z,4.30
2023-02-08T14:55:35.031Z,4.90
2023-02-08T15:00:38.970Z,5.60
2023-02-08T15:13:08.898Z,5.40
2023-02-08T15:15:41.541Z,5.30
2023-02-08T15:18:19.440Z,5.30
2023-02-08T15:20:57.091Z,4.80
2023-02-08T15:28:29.452Z,3.80
2023-02-08T15:31:01.830Z,3.00
2023-02-08T15:33:30.148Z,3.00
2023-02-08T15:36:01.799Z,2.50
2023-02-08T15:38:31.429Z,2.40
2023-02-08T15:41:08.274Z,2.40
2023-02-08T15:43:37.415Z,2.30
2023-02-08T15:46:08.920Z,2.20
2023-02-08T15:48:45.783Z,2.10
2023-02-08T15:51:16.200Z,2.00
2023-02-08T15:56:27.010Z,2.00
2023-02-08T15:59:05.250Z,2.00
2023-02-08T16:04:08.410Z,2.00
2023-02-08T16:06:40.320Z,1.90
2023-02-08T16:09:08.512Z,1.80
2023-02-08T16:11:37.850Z,1.70
2023-02-08T16:14:07.838Z,1.60
2023-02-08T16:16:42.527Z,1.70
2023-02-08T16:19:23.335Z,1.60
2023-02-08T16:21:52.087Z,1.60
2023-02-08T16:24:25.506Z,1.60
2023-02-08T16:27:00.294Z,1.60
2023-02-08T16:29:30.187Z,1.70
2023-02-08T16:32:03.617Z,1.60
2023-02-08T16:34:34.469Z,1.40
2023-02-08T16:37:04.237Z,1.40
2023-02-08T16:39:52.191Z,1.30
2023-02-08T16:42:30.510Z,1.10
2023-02-08T16:45:18.054Z,1.00
2023-02-08T16:47:49.995Z,0.90
2023-02-08T16:50:20.337Z,0.90
2023-02-08T16:52:51.012Z,0.70
2023-02-08T16:55:22.443Z,0.60
2023-02-08T16:58:06.183Z,0.50
2023-02-08T17:00:36.282Z,0.50
2023-02-08T17:05:38.187Z,0.50
2023-02-08T17:08:08.027Z,1.20
2023-02-08T17:10:36.436Z,0.40
2023-02-08T17:13:19.317Z,0.40
2023-02-08T17:15:49.811Z,0.40
2023-02-08T17:20:48.458Z,0.40
2023-02-08T17:25:46.023Z,0.20
2023-02-08T17:28:18.841Z,0.20
2023-02-08T17:30:47.903Z,0.40
2023-02-08T17:33:18.899Z,0.10
2023-02-08T17:35:49.983Z,0.00
2023-02-08T17:38:19.176Z,0.00
2023-02-08T17:40:47.604Z,-0.10
2023-02-08T17:45:45.555Z,-0.20
2023-02-08T17:48:14.332Z,-0.20
2023-02-08T17:50:43.989Z,-0.20
2023-02-08T17:55:43.321Z,-0.20
2023-02-08T17:58:11.587Z,-0.20
2023-02-08T18:00:40.387Z,-0.10
2023-02-08T18:03:08.480Z,-0.10
2023-02-08T18:08:06.052Z,-0.10
2023-02-08T18:13:03.848Z,-0.20
2023-02-08T18:18:00.351Z,-0.20
2023-02-08T18:22:56.694Z,-0.30
2023-02-08T18:30:22.956Z,-0.40
2023-02-08T18:32:51.064Z,-0.40
2023-02-08T18:35:19.205Z,-0.40
2023-02-08T18:40:18.409Z,-0.40
2023-02-08T18:42:46.578Z,-0.50
2023-02-08T18:45:16.014Z,-0.30
2023-02-08T18:50:14.487Z,-0.10
2023-02-08T18:52:42.781Z,-0.20
2023-02-08T18:55:10.890Z,-0.30
2023-02-08T19:00:08.953Z,-0.40
2023-02-08T19:02:39.609Z,-0.40
2023-02-08T19:05:08.301Z,-0.40
2023-02-08T19:07:36.472Z,-0.50
2023-02-08T19:10:04.830Z,-0.50
2023-02-08T19:15:01.252Z,-0.40
2023-02-08T19:22:27.449Z,-0.40
2023-02-08T19:24:55.477Z,-0.30
2023-02-08T19:27:23.496Z,-0.30
2023-02-08T19:29:56.143Z,-0.50
2023-02-08T19:32:24.416Z,-0.40
2023-02-08T19:34:52.394Z,-0.40
2023-02-08T19:37:21.827Z,-0.40
2023-02-08T19:39:49.845Z,-0.40
2023-02-08T19:42:18.160Z,-0.40
2023-02-08T19:44:46.165Z,-0.70
2023-02-08T19:47:14.152Z,-0.80
2023-02-08T19:49:42.651Z,-0.90
2023-02-08T19:52:10.656Z,-1.00
2023-02-08T19:57:11.714Z,-1.70
2023-02-08T19:59:39.856Z,-1.90
2023-02-08T20:02:11.443Z,-2.10
2023-02-08T20:04:39.776Z,-1.80
2023-02-08T20:07:08.970Z,-1.80
2023-02-08T20:09:37.051Z,-1.70
2023-02-08T20:12:07.061Z,-1.60
2023-02-08T20:14:35.140Z,-2.00
2023-02-08T20:17:03.766Z,-2.10
2023-02-08T20:19:31.865Z,-2.10
2023-02-08T20:22:00.011Z,-2.10
2023-02-08T20:24:28.451Z,-2.00
2023-02-08T20:29:27.849Z,-2.00
2023-02-08T20:34:25.965Z,-2.40
2023-02-08T20:37:06.189Z,-2.40
2023-02-08T20:39:35.643Z,-2.40
2023-02-08T20:42:03.976Z,-2.40
2023-02-08T20:44:33.435Z,-2.20
2023-02-08T20:49:32.127Z,-2.50
2023-02-08T20:52:00.310Z,-2.50
2023-02-08T20:54:28.440Z,-2.60
2023-02-08T20:56:56.586Z,-2.60
2023-02-08T20:59:25.008Z,-2.50
2023-02-08T21:01:54.684Z,-2.50
2023-02-08T21:06:53.230Z,-2.50
2023-02-08T21:09:21.956Z,-2.50
2023-02-08T21:11:50.829Z,-2.50
2023-02-08T21:14:21.221Z,-2.50
2023-02-08T21:16:51.302Z,-2.50
2023-02-08T21:19:21.584Z,-2.50
2023-02-08T21:21:52.486Z,-2.50
2023-02-08T21:24:20.910Z,-2.50
2023-02-08T21:34:15.644Z,-2.60
2023-02-08T21:36:45.069Z,-2.60
2023-02-08T21:39:13.654Z,-3.10
2023-02-08T21:41:41.790Z,-3.30
2023-02-08T21:44:10.229Z,-3.40
2023-02-08T21:49:32.355Z,-3.30
2023-02-08T21:52:19.581Z,-3.10
2023-02-08T21:54:53.103Z,-3.00
2023-02-08T21:57:23.583Z,-3.00
2023-02-08T21:59:54.005Z,-3.10
2023-02-08T22:02:25.574Z,-3.10
2023-02-08T22:04:55.361Z,-3.10
2023-02-08T22:09:53.789Z,-3.10
2023-02-08T22:12:23.075Z,-3.10
2023-02-08T22:14:52.561Z,-3.10
2023-02-08T22:17:20.658Z,-3.10
2023-02-08T22:19:48.815Z,-3.10
2023-02-08T22:22:16.902Z,-3.10
2023-02-08T22:24:46.397Z,-3.10
2023-02-08T22:27:14.573Z,-3.20
2023-02-08T22:29:42.758Z,-3.20
2023-02-08T22:32:12.644Z,-3.30
2023-02-08T22:34:40.809Z,-3.30
2023-02-08T22:37:09.311Z,-3.30
2023-02-08T22:42:12.101Z,-3.40
2023-02-08T22:44:41.079Z,-3.40
2023-02-08T22:47:11.543Z,-3.40
2023-02-08T22:49:40.039Z,-3.50
2023-02-08T22:52:08.810Z,-3.60
2023-02-08T22:54:37.117Z,-3.60
2023-02-08T22:57:06.057Z,-3.60
2023-02-08T22:59:35.800Z,-3.50
2023-02-08T23:02:04.028Z,-3.40
2023-02-08T23:07:01.105Z,-3.30
2023-02-08T23:09:29.255Z,-3.20
2023-02-08T23:11:57.479Z,-3.20
2023-02-08T23:14:26.043Z,-3.20
2023-02-08T23:16:55.800Z,-3.10
2023-02-08T23:24:21.373Z,-3.60
2023-02-08T23:29:17.914Z,-3.90
2023-02-08T23:31:46.153Z,-4.00
2023-02-08T23:36:44.284Z,-4.10
2023-02-08T23:54:05.850Z,-4.10
2023-02-08T23:56:33.967Z,-4.20
2023-02-08T23:59:02.294Z,-4.20
